createdAt,value
2022-09-21T00:01:49.891Z,95.48
2022-09-21T00:04:47.698Z,95.58
2022-09-21T00:07:15.911Z,96.49
2022-09-21T00:09:44.108Z,97.65
2022-09-21T00:12:12.560Z,98.35
2022-09-21T00:14:40.766Z,98.19
2022-09-21T00:17:10.720Z,97.83
2022-09-21T00:19:38.923Z,96.92
2022-09-21T00:22:07.388Z,95.14
2022-09-21T00:24:35.825Z,95.61
2022-09-21T00:27:04.013Z,95.13
2022-09-21T00:29:32.219Z,96.82
2022-09-21T00:32:00.503Z,96.88
2022-09-21T00:34:30.331Z,97.43
2022-09-21T00:36:58.881Z,97.47
2022-09-21T00:39:27.154Z,96.54
2022-09-21T00:41:55.304Z,96.15
2022-09-21T00:44:31.801Z,95.52
2022-09-21T00:47:07.936Z,94.89
2022-09-21T00:49:40.173Z,95.93
2022-09-21T00:52:09.432Z,96.64
2022-09-21T00:54:43.518Z,96.28
2022-09-21T00:57:12.454Z,95.83
2022-09-21T00:59:41.725Z,96.52
2022-09-21T01:02:10.025Z,97.57
2022-09-21T01:04:40.907Z,98.19
2022-09-21T01:07:14.694Z,99.22
2022-09-21T01:09:44.850Z,98.20
2022-09-21T01:12:30.360Z,99.43
2022-09-21T01:15:20.982Z,99.90
2022-09-21T01:18:00.301Z,99.62
2022-09-21T01:21:30.231Z,98.90
2022-09-21T01:24:17.942Z,99.52
2022-09-21T01:27:13.908Z,98.21
2022-09-21T01:29:50.337Z,99.52
2022-09-21T01:32:24.064Z,98.99
2022-09-21T01:34:57.359Z,99.49
2022-09-21T01:37:34.050Z,99.15
2022-09-21T01:40:11.438Z,100.00
2022-09-21T01:42:42.348Z,99.54
2022-09-21T01:45:17.290Z,100.00
2022-09-21T01:47:49.918Z,100.00
2022-09-21T01:50:26.976Z,100.00
2022-09-21T01:53:02.272Z,100.00
2022-09-21T01:55:35.980Z,99.87
2022-09-21T01:58:13.106Z,99.94
2022-09-21T02:00:46.042Z,99.53
2022-09-21T02:03:20.848Z,98.89
2022-09-21T02:05:49.153Z,97.68
2022-09-21T02:08:18.065Z,97.69
2022-09-21T02:10:50.998Z,96.94
2022-09-21T02:13:20.858Z,97.38
2022-09-21T02:16:21.015Z,96.20
2022-09-21T02:19:07.645Z,95.93
2022-09-21T02:21:58.501Z,96.29
2022-09-21T02:24:39.307Z,96.13
2022-09-21T02:27:15.044Z,97.96
2022-09-21T02:29:51.673Z,97.94
2022-09-21T02:32:37.235Z,97.17
2022-09-21T02:35:15.025Z,97.62
2022-09-21T02:37:49.047Z,96.72
2022-09-21T02:40:27.575Z,96.60
2022-09-21T02:43:00.933Z,97.69
2022-09-21T02:45:34.746Z,96.34
2022-09-21T02:48:09.104Z,96.78
2022-09-21T02:50:43.804Z,96.95
2022-09-21T02:53:14.752Z,96.90
2022-09-21T02:55:45.327Z,96.10
2022-09-21T02:58:17.916Z,97.98
2022-09-21T03:00:46.401Z,97.21
2022-09-21T03:03:22.341Z,97.07
2022-09-21T03:05:54.292Z,97.77
2022-09-21T03:08:23.271Z,96.33
2022-09-21T03:10:51.956Z,97.10
2022-09-21T03:13:20.184Z,98.14
2022-09-21T03:15:49.068Z,97.68
2022-09-21T03:18:17.395Z,99.41
2022-09-21T03:20:47.114Z,99.92
2022-09-21T03:23:15.766Z,98.84
2022-09-21T03:25:46.120Z,99.89
2022-09-21T03:28:15.082Z,99.54
2022-09-21T03:30:44.401Z,99.16
2022-09-21T03:33:13.721Z,98.51
2022-09-21T03:35:42.143Z,99.61
2022-09-21T03:38:11.704Z,98.19
2022-09-21T03:40:39.928Z,99.50
2022-09-21T03:43:08.214Z,98.45
2022-09-21T03:45:37.995Z,100.00
2022-09-21T03:48:06.191Z,100.00
2022-09-21T03:50:34.564Z,100.00
2022-09-21T03:53:02.751Z,100.00
2022-09-21T03:55:33.213Z,100.00
2022-09-21T03:58:01.472Z,100.00
2022-09-21T04:00:30.947Z,100.00
2022-09-21T04:03:00.076Z,100.00
2022-09-21T04:05:28.791Z,100.00
2022-09-21T04:07:57.695Z,99.30
2022-09-21T04:10:29.256Z,98.87
2022-09-21T04:13:02.158Z,99.23
2022-09-21T04:15:31.351Z,99.50
2022-09-21T04:17:59.690Z,98.51
2022-09-21T04:20:28.194Z,99.51
2022-09-21T04:22:56.420Z,99.44
2022-09-21T04:25:24.699Z,98.95
2022-09-21T04:27:52.995Z,98.87
2022-09-21T04:30:22.570Z,98.29
2022-09-21T04:32:50.731Z,98.76
2022-09-21T04:35:18.968Z,97.84
2022-09-21T04:37:47.159Z,97.55
2022-09-21T04:40:15.835Z,97.23
2022-09-21T04:42:44.137Z,95.86
2022-09-21T04:45:12.949Z,96.43
2022-09-21T04:47:42.612Z,95.89
2022-09-21T04:50:11.338Z,94.23
2022-09-21T04:52:40.084Z,94.30
2022-09-21T04:55:09.607Z,93.66
2022-09-21T04:57:37.944Z,95.33
2022-09-21T05:00:07.854Z,94.32
2022-09-21T05:02:36.071Z,94.90
2022-09-21T05:05:06.807Z,94.93
2022-09-21T05:07:34.971Z,94.65
2022-09-21T05:10:05.233Z,95.44
2022-09-21T05:12:38.526Z,95.14
2022-09-21T05:15:09.759Z,94.30
2022-09-21T05:17:38.096Z,97.67
2022-09-21T05:20:09.026Z,97.90
2022-09-21T05:22:37.375Z,97.46
2022-09-21T05:25:07.041Z,95.99
2022-09-21T05:27:35.223Z,95.58
2022-09-21T05:30:04.462Z,95.70
2022-09-21T05:32:46.153Z,96.80
2022-09-21T05:35:27.430Z,96.63
2022-09-21T05:38:02.464Z,96.09
2022-09-21T05:40:31.568Z,95.71
2022-09-21T05:43:00.713Z,94.86
2022-09-21T05:45:29.964Z,96.64
2022-09-21T05:48:13.155Z,95.34
2022-09-21T05:51:04.432Z,95.90
2022-09-21T05:53:50.541Z,95.25
2022-09-21T05:56:42.650Z,96.14
2022-09-21T05:59:36.780Z,95.82
2022-09-21T06:02:17.924Z,95.04
2022-09-21T06:04:47.789Z,95.03
2022-09-21T06:07:17.359Z,95.33
2022-09-21T06:09:45.577Z,95.04
2022-09-21T06:12:13.816Z,95.67
2022-09-21T06:14:42.437Z,95.20
2022-09-21T06:17:10.726Z,96.23
2022-09-21T06:19:39.028Z,96.56
2022-09-21T06:22:07.205Z,97.11
2022-09-21T06:24:36.778Z,96.94
2022-09-21T06:27:05.320Z,96.92
2022-09-21T06:29:33.499Z,97.23
2022-09-21T06:32:03.468Z,100.00
2022-09-21T06:34:32.016Z,100.00
2022-09-21T06:37:00.192Z,100.00
2022-09-21T06:39:28.739Z,100.00
2022-09-21T06:41:59.482Z,100.00
2022-09-21T06:44:29.842Z,100.00
2022-09-21T06:46:58.021Z,99.86
2022-09-21T06:49:28.659Z,100.00
2022-09-21T06:51:57.127Z,100.00
2022-09-21T06:54:25.615Z,100.00
2022-09-21T06:56:56.841Z,100.00
2022-09-21T06:59:29.422Z,100.00
2022-09-21T07:01:58.558Z,100.00
2022-09-21T07:04:29.431Z,99.46
2022-09-21T07:06:57.945Z,100.00
2022-09-21T07:12:15.074Z,100.00
2022-09-21T07:14:45.627Z,99.51
2022-09-21T07:17:16.005Z,100.00
2022-09-21T07:19:44.385Z,100.00
2022-09-21T07:22:12.582Z,100.00
2022-09-21T07:24:41.099Z,100.00
2022-09-21T07:27:09.673Z,100.00
2022-09-21T07:29:37.852Z,100.00
2022-09-21T07:32:07.482Z,100.00
2022-09-21T07:34:37.875Z,100.00
2022-09-21T07:37:06.397Z,100.00
2022-09-21T07:39:35.523Z,100.00
2022-09-21T07:42:03.747Z,100.00
2022-09-21T07:44:31.908Z,100.00
2022-09-21T07:47:00.336Z,100.00
2022-09-21T07:49:32.115Z,100.00
2022-09-21T07:52:04.473Z,100.00
2022-09-21T07:54:34.511Z,100.00
2022-09-21T07:57:20.278Z,100.00
2022-09-21T07:59:48.582Z,100.00
2022-09-21T08:02:16.788Z,100.00
2022-09-21T08:04:46.707Z,100.00
2022-09-21T08:07:14.952Z,99.92
2022-09-21T08:09:43.152Z,97.13
2022-09-21T08:12:12.129Z,98.47
2022-09-21T08:14:40.652Z,98.96
2022-09-21T08:17:08.987Z,97.17
2022-09-21T08:19:37.157Z,97.20
2022-09-21T08:22:07.221Z,96.87
2022-09-21T08:24:36.743Z,96.99
2022-09-21T08:27:05.498Z,94.50
2022-09-21T08:29:33.681Z,93.09
2022-09-21T08:32:02.792Z,93.67
2022-09-21T08:34:31.009Z,90.39
2022-09-21T08:36:59.163Z,92.35
2022-09-21T08:39:29.084Z,89.75
2022-09-21T08:42:14.518Z,93.01
2022-09-21T08:44:45.988Z,91.68
2022-09-21T08:47:18.553Z,91.14
2022-09-21T08:49:52.850Z,88.42
2022-09-21T08:52:22.856Z,87.70
2022-09-21T08:54:57.926Z,83.29
2022-09-21T08:57:31.093Z,82.83
2022-09-21T09:00:01.883Z,81.83
2022-09-21T09:02:51.607Z,82.79
2022-09-21T09:05:38.475Z,81.36
2022-09-21T09:08:26.630Z,78.65
2022-09-21T09:11:12.478Z,81.93
2022-09-21T09:14:17.070Z,80.12
2022-09-21T09:16:54.889Z,82.13
2022-09-21T09:19:29.234Z,81.00
2022-09-21T09:21:58.120Z,78.83
2022-09-21T09:24:36.703Z,77.02
2022-09-21T09:27:15.309Z,77.20
2022-09-21T09:29:52.717Z,78.18
2022-09-21T09:32:25.560Z,79.18
2022-09-21T09:35:00.398Z,77.90
2022-09-21T09:37:35.560Z,73.36
2022-09-21T09:40:04.574Z,72.80
2022-09-21T09:42:52.821Z,72.13
2022-09-21T09:45:43.771Z,71.91
2022-09-21T09:48:39.341Z,71.49
2022-09-21T09:51:13.114Z,70.88
2022-09-21T09:53:41.657Z,69.91
2022-09-21T09:56:11.987Z,70.57
2022-09-21T09:58:49.620Z,72.03
2022-09-21T10:01:38.577Z,69.03
2022-09-21T10:04:12.027Z,69.21
2022-09-21T10:06:46.053Z,67.30
2022-09-21T10:09:26.809Z,67.57
2022-09-21T10:12:00.135Z,68.61
2022-09-21T10:14:34.660Z,68.67
2022-09-21T10:17:07.900Z,68.25
2022-09-21T10:19:38.163Z,68.06
2022-09-21T10:22:06.862Z,67.93
2022-09-21T10:24:38.951Z,68.23
2022-09-21T10:27:14.532Z,65.47
2022-09-21T10:29:46.737Z,67.38
2022-09-21T10:32:26.089Z,65.85
2022-09-21T10:35:22.279Z,66.09
2022-09-21T10:38:10.030Z,66.63
2022-09-21T10:40:39.817Z,67.89
2022-09-21T10:43:24.209Z,67.23
2022-09-21T10:45:58.622Z,67.78
2022-09-21T10:48:28.695Z,66.31
2022-09-21T10:50:58.152Z,66.07
2022-09-21T10:53:29.848Z,66.13
2022-09-21T10:56:18.365Z,67.36
2022-09-21T10:59:12.385Z,67.03
2022-09-21T11:01:46.926Z,66.82
2022-09-21T11:04:23.951Z,64.01
2022-09-21T11:06:56.436Z,62.01
2022-09-21T11:09:31.047Z,63.30
2022-09-21T11:12:07.496Z,65.34
2022-09-21T11:14:47.117Z,66.12
2022-09-21T11:17:27.183Z,66.73
2022-09-21T11:20:09.740Z,66.79
2022-09-21T11:22:46.854Z,67.05
2022-09-21T11:25:32.420Z,66.63
2022-09-21T11:28:13.382Z,66.16
2022-09-21T11:31:19.821Z,63.94
2022-09-21T11:34:25.065Z,62.15
2022-09-21T11:37:08.501Z,63.30
2022-09-21T11:39:54.069Z,60.99
2022-09-21T11:42:49.977Z,62.77
2022-09-21T11:45:50.259Z,59.74
2022-09-21T11:48:33.937Z,59.89
2022-09-21T11:51:17.310Z,56.56
2022-09-21T11:54:13.282Z,58.19
2022-09-21T11:56:50.300Z,56.95
2022-09-21T11:59:40.172Z,56.64
2022-09-21T12:02:52.234Z,56.68
2022-09-21T12:05:35.470Z,53.26
2022-09-21T12:08:35.782Z,55.74
2022-09-21T12:11:12.627Z,52.80
2022-09-21T12:13:51.824Z,52.21
2022-09-21T12:16:29.911Z,50.82
2022-09-21T12:19:09.588Z,50.61
2022-09-21T12:21:44.147Z,49.84
2022-09-21T12:24:21.962Z,50.29
2022-09-21T12:26:55.591Z,50.92
2022-09-21T12:29:28.557Z,48.35
2022-09-21T12:32:04.375Z,50.07
2022-09-21T12:34:42.692Z,50.26
2022-09-21T12:37:17.190Z,49.68
2022-09-21T12:39:53.130Z,50.25
2022-09-21T12:42:31.405Z,48.20
2022-09-21T12:45:05.151Z,48.51
2022-09-21T12:47:50.052Z,50.66
2022-09-21T12:50:25.182Z,47.76
2022-09-21T12:52:54.778Z,45.34
2022-09-21T12:55:44.469Z,45.20
2022-09-21T12:58:44.121Z,47.58
2022-09-21T13:01:30.978Z,48.03
2022-09-21T13:04:26.548Z,46.60
2022-09-21T13:07:32.798Z,48.03
2022-09-21T13:10:13.415Z,49.08
2022-09-21T13:12:46.738Z,48.95
2022-09-21T13:15:24.180Z,48.45
2022-09-21T13:18:01.097Z,50.25
2022-09-21T13:20:35.823Z,50.13
2022-09-21T13:23:04.748Z,50.79
2022-09-21T13:25:37.521Z,51.79
2022-09-21T13:28:24.140Z,51.30
2022-09-21T13:31:41.511Z,53.36
2022-09-21T13:34:30.230Z,52.98
2022-09-21T13:37:31.799Z,50.99
2022-09-21T13:40:42.449Z,49.22
2022-09-21T13:43:25.855Z,49.35
2022-09-21T13:45:59.081Z,47.64
2022-09-21T13:48:33.941Z,44.39
2022-09-21T13:51:08.702Z,45.92
2022-09-21T13:53:41.977Z,45.33
2022-09-21T13:56:22.824Z,46.05
2022-09-21T13:58:57.279Z,47.58
2022-09-21T14:01:52.469Z,47.95
2022-09-21T14:04:27.955Z,49.04
2022-09-21T14:07:08.018Z,48.39
2022-09-21T14:09:55.035Z,47.84
2022-09-21T14:12:26.908Z,48.34
2022-09-21T14:15:36.751Z,46.87
2022-09-21T14:18:47.581Z,47.25
2022-09-21T14:21:18.932Z,47.87
2022-09-21T14:24:21.173Z,45.13
2022-09-21T14:27:01.474Z,43.84
2022-09-21T14:29:40.596Z,44.80
2022-09-21T14:32:19.192Z,45.88
2022-09-21T14:34:49.718Z,47.73
2022-09-21T14:37:31.771Z,47.73
2022-09-21T14:40:05.833Z,48.68
2022-09-21T14:42:34.509Z,49.16
2022-09-21T14:45:04.506Z,50.31
2022-09-21T14:48:02.662Z,50.36
2022-09-21T14:50:36.079Z,48.58
2022-09-21T14:53:29.791Z,46.54
2022-09-21T14:56:21.942Z,45.37
2022-09-21T14:59:07.792Z,43.21
2022-09-21T15:01:42.068Z,41.40
2022-09-21T15:04:46.033Z,42.28
2022-09-21T15:07:57.767Z,40.37
2022-09-21T15:10:49.698Z,40.25
2022-09-21T15:13:45.744Z,39.63
2022-09-21T15:16:38.446Z,39.14
2022-09-21T15:19:17.358Z,40.83
2022-09-21T15:21:49.028Z,40.21
2022-09-21T15:24:31.773Z,40.14
2022-09-21T15:27:10.265Z,39.67
2022-09-21T15:29:40.194Z,39.28
2022-09-21T15:32:09.010Z,38.87
2022-09-21T15:34:37.541Z,40.21
2022-09-21T15:37:18.065Z,40.43
2022-09-21T15:39:46.289Z,39.51
2022-09-21T15:42:23.557Z,41.33
2022-09-21T15:45:06.059Z,39.89
2022-09-21T15:47:34.712Z,40.23
2022-09-21T15:50:03.247Z,40.22
2022-09-21T15:52:37.845Z,40.91
2022-09-21T15:55:14.929Z,41.61
2022-09-21T15:57:44.579Z,42.35
2022-09-21T16:00:24.258Z,42.71
2022-09-21T16:03:07.372Z,43.83
2022-09-21T16:06:02.353Z,44.19
2022-09-21T16:08:35.715Z,44.74
2022-09-21T16:11:17.059Z,43.44
2022-09-21T16:14:04.925Z,44.15
2022-09-21T16:16:33.405Z,44.67
2022-09-21T16:19:01.669Z,45.65
2022-09-21T16:21:33.621Z,45.61
2022-09-21T16:24:13.694Z,45.32
2022-09-21T16:26:42.653Z,46.82
2022-09-21T16:29:25.590Z,46.72
2022-09-21T16:32:31.704Z,45.88
2022-09-21T16:35:27.977Z,46.43
2022-09-21T16:37:57.542Z,47.33
2022-09-21T16:40:29.470Z,48.19
2022-09-21T16:42:58.884Z,49.54
2022-09-21T16:45:31.770Z,50.62
2022-09-21T16:48:00.478Z,51.49
2022-09-21T16:50:28.782Z,51.55
2022-09-21T16:53:02.930Z,52.26
2022-09-21T16:55:32.915Z,52.56
2022-09-21T16:58:01.243Z,52.67
2022-09-21T17:00:32.929Z,54.43
2022-09-21T17:03:02.263Z,54.74
2022-09-21T17:05:30.478Z,55.63
2022-09-21T17:08:00.397Z,56.52
2022-09-21T17:10:34.597Z,56.49
2022-09-21T17:13:04.438Z,57.08
2022-09-21T17:15:33.833Z,58.11
2022-09-21T17:18:02.184Z,58.33
2022-09-21T17:20:41.694Z,59.77
2022-09-21T17:23:10.824Z,59.77
2022-09-21T17:25:40.365Z,60.49
2022-09-21T17:28:16.206Z,60.64
2022-09-21T17:30:46.441Z,62.25
2022-09-21T17:33:15.155Z,62.71
2022-09-21T17:35:44.845Z,63.16
2022-09-21T17:38:14.662Z,63.62
2022-09-21T17:40:45.640Z,63.44
2022-09-21T17:43:35.542Z,63.89
2022-09-21T17:46:11.387Z,63.97
2022-09-21T17:48:41.681Z,64.40
2022-09-21T17:51:11.836Z,65.38
2022-09-21T17:53:41.688Z,65.32
2022-09-21T17:56:26.573Z,65.79
2022-09-21T17:59:02.091Z,66.30
2022-09-21T18:01:34.866Z,67.33
2022-09-21T18:04:08.699Z,67.86
2022-09-21T18:06:37.806Z,68.53
2022-09-21T18:09:07.720Z,68.84
2022-09-21T18:12:48.270Z,69.47
2022-09-21T18:15:24.007Z,70.55
2022-09-21T18:18:09.597Z,71.22
2022-09-21T18:20:51.149Z,71.43
2022-09-21T18:23:27.716Z,71.97
2022-09-21T18:25:57.897Z,72.13
2022-09-21T18:28:40.272Z,71.81
2022-09-21T18:31:42.056Z,72.45
2022-09-21T18:34:34.726Z,72.90
2022-09-21T18:37:13.121Z,72.88
2022-09-21T18:39:52.946Z,73.17
2022-09-21T18:42:40.143Z,73.49
2022-09-21T18:45:17.206Z,73.50
2022-09-21T18:47:59.369Z,74.36
2022-09-21T18:50:36.057Z,74.43
2022-09-21T18:53:15.918Z,74.35
2022-09-21T18:55:45.170Z,74.69
2022-09-21T18:58:13.836Z,75.18
2022-09-21T19:00:44.240Z,74.61
2022-09-21T19:03:18.158Z,74.87
2022-09-21T19:06:02.729Z,75.00
2022-09-21T19:08:43.449Z,74.25
2022-09-21T19:11:19.696Z,75.73
2022-09-21T19:13:56.090Z,74.45
2022-09-21T19:16:35.125Z,74.37
2022-09-21T19:19:18.985Z,74.54
2022-09-21T19:21:56.463Z,75.61
2022-09-21T19:24:32.929Z,74.90
2022-09-21T19:27:21.206Z,75.48
2022-09-21T19:30:01.645Z,75.79
2022-09-21T19:32:38.189Z,76.54
2022-09-21T19:35:23.385Z,75.44
2022-09-21T19:37:53.816Z,76.57
2022-09-21T19:40:26.953Z,75.99
2022-09-21T19:43:10.126Z,76.62
2022-09-21T19:45:50.363Z,75.53
2022-09-21T19:48:24.017Z,76.33
2022-09-21T19:50:57.191Z,77.03
2022-09-21T19:53:44.244Z,76.21
2022-09-21T19:56:45.185Z,76.25
2022-09-21T19:59:31.744Z,77.02
2022-09-21T20:02:28.108Z,77.83
2022-09-21T20:05:06.162Z,78.15
2022-09-21T20:07:45.171Z,78.86
2022-09-21T20:10:40.882Z,78.67
2022-09-21T20:13:21.831Z,78.64
2022-09-21T20:15:57.450Z,78.37
2022-09-21T20:18:32.387Z,78.77
2022-09-21T20:21:02.554Z,78.79
2022-09-21T20:23:32.236Z,78.97
2022-09-21T20:26:07.174Z,78.98
2022-09-21T20:28:36.111Z,78.81
2022-09-21T20:31:05.235Z,79.13
2022-09-21T20:33:33.461Z,78.57
2022-09-21T20:36:03.522Z,79.52
2022-09-21T20:38:32.191Z,79.60
2022-09-21T20:41:00.765Z,78.36
2022-09-21T20:43:32.485Z,79.37
2022-09-21T20:46:03.509Z,79.47
2022-09-21T20:48:31.797Z,79.79
2022-09-21T20:51:06.105Z,79.85
2022-09-21T20:53:34.975Z,81.83
2022-09-21T20:56:04.305Z,82.05
2022-09-21T20:58:35.374Z,82.91
2022-09-21T21:01:08.600Z,82.32
2022-09-21T21:03:36.978Z,81.41
2022-09-21T21:06:11.464Z,81.50
2022-09-21T21:08:39.675Z,80.83
2022-09-21T21:11:08.025Z,81.17
2022-09-21T21:13:36.273Z,81.83
2022-09-21T21:16:09.463Z,82.43
2022-09-21T21:18:41.029Z,83.04
2022-09-21T21:21:10.752Z,82.85
2022-09-21T21:23:53.205Z,83.57
2022-09-21T21:26:33.320Z,83.94
2022-09-21T21:29:06.880Z,82.84
2022-09-21T21:31:35.158Z,83.05
2022-09-21T21:34:03.359Z,83.36
2022-09-21T21:36:32.914Z,82.66
2022-09-21T21:39:01.152Z,82.28
2022-09-21T21:41:31.147Z,82.44
2022-09-21T21:43:59.469Z,82.40
2022-09-21T21:46:27.911Z,83.85
2022-09-21T21:48:56.361Z,84.02
2022-09-21T21:51:24.622Z,84.85
2022-09-21T21:53:54.127Z,84.95
2022-09-21T21:56:23.306Z,84.46
2022-09-21T21:58:54.113Z,84.99
2022-09-21T22:01:25.242Z,85.17
2022-09-21T22:04:03.323Z,84.53
2022-09-21T22:06:35.366Z,84.74
2022-09-21T22:09:07.404Z,84.33
2022-09-21T22:11:36.777Z,84.48
2022-09-21T22:14:06.996Z,84.81
2022-09-21T22:16:37.898Z,85.51
2022-09-21T22:19:08.254Z,85.57
2022-09-21T22:21:42.373Z,85.07
2022-09-21T22:24:12.311Z,86.05
2022-09-21T22:26:42.846Z,85.61
2022-09-21T22:29:14.199Z,86.46
2022-09-21T22:31:45.619Z,87.56
2022-09-21T22:34:14.861Z,87.09
2022-09-21T22:36:44.366Z,85.39
2022-09-21T22:39:14.148Z,84.60
2022-09-21T22:41:43.780Z,84.41
2022-09-21T22:44:12.500Z,85.30
2022-09-21T22:46:46.977Z,85.34
2022-09-21T22:49:15.127Z,84.72
2022-09-21T22:51:43.270Z,85.22
2022-09-21T22:54:12.803Z,84.30
2022-09-21T22:56:40.980Z,84.95
2022-09-21T22:59:09.611Z,85.42
2022-09-21T23:01:39.642Z,85.83
2022-09-21T23:04:10.548Z,85.26
2022-09-21T23:06:41.514Z,85.83
2022-09-21T23:09:16.519Z,85.58
2022-09-21T23:11:47.948Z,84.93
2022-09-21T23:14:17.648Z,84.10
2022-09-21T23:16:46.635Z,84.08
2022-09-21T23:19:16.404Z,84.38
2022-09-21T23:21:46.663Z,84.77
2022-09-21T23:24:16.686Z,84.67
2022-09-21T23:26:45.599Z,84.60
2022-09-21T23:29:16.011Z,86.92
2022-09-21T23:31:45.993Z,86.41
2022-09-21T23:34:16.631Z,85.58
2022-09-21T23:36:45.756Z,86.39
2022-09-21T23:39:16.763Z,86.86
2022-09-21T23:41:45.410Z,86.72
2022-09-21T23:44:13.869Z,87.21
2022-09-21T23:46:42.458Z,86.88
2022-09-21T23:49:11.243Z,87.53
2022-09-21T23:51:39.670Z,87.54
2022-09-21T23:54:10.974Z,89.37
2022-09-21T23:56:43.656Z,87.67
2022-09-21T23:59:11.874Z,87.95
